Accueil
METAR-TAF:

METAR-TAF

Aéroports :

Cranfield, Angleterre

latitude: 52-04N, longitude: 000-37W, altitude: 111 m

Observation

Le bulletin a été fait il y a 10 heures et 6 minutes, à 16:20 UTC
Vent 10 kt de ouest/sud-ouest
Température 22°C
Humidité 69%
Pression 1019 hPa
Visibilité 10 km ou plus
Nuages épars à une hauteur de 3500 ft

METAR: EGTC 181620Z 24010KT 9999 SCT035 22/16 Q1019

Heure: 03:26 (02:26 UTC)

Prévision

Le bulletin a été fait il y a 12 heures et 31 minutes, à 13:55 UTC
Prévision valable du 18 à 15 UTC au 18 à 18 UTC
Vent 12 kt de ouest/sud-ouest
Visibilité 10 km ou plus
Nuages épars à une hauteur de 2500 ft

TAF: EGTC 181355Z 1815/1818 24012KT 9999 SCT025

Observations et prévisions météorologiques de plus de 4000 aéroports (messages METAR et TAF).

Les stations disponibles sont représentées par des disques jaunes et rouges sur la carte.

Passer la souris dessus pour voir le nom de la station.

Cliquer dessus pour voir les observations et prévisions météorologiques.

Pour changer de carte: cliquez sur les boutons verts avec une croix noire pour zoomer, sur le bouton vert avec un tiret pour effectuer un zoom arrière, ou sur les flèches vertes pour les cartes adjacentes.


METAR-TAF: